createdAt,value
2019-03-13T00:00:38.957Z,97457.10
2019-03-13T00:03:12.155Z,97460.92
2019-03-13T00:05:48.608Z,97471.89
2019-03-13T00:11:38.546Z,97470.19
2019-03-13T00:14:12.929Z,97454.58
2019-03-13T00:17:01.963Z,97451.45
2019-03-13T00:19:34.818Z,97448.80
2019-03-13T00:22:11.182Z,97446.38
2019-03-13T00:24:44.114Z,97431.55
2019-03-13T00:27:16.237Z,97439.41
2019-03-13T00:29:52.222Z,97435.66
2019-03-13T00:32:23.199Z,97421.09
2019-03-13T00:34:56.346Z,97411.46
2019-03-13T00:37:32.289Z,97416.16
2019-03-13T00:40:11.143Z,97410.39
2019-03-13T00:42:43.970Z,97403.02
2019-03-13T00:45:18.055Z,97392.25
2019-03-13T00:47:53.001Z,97387.37
2019-03-13T00:50:37.718Z,97379.86
2019-03-13T00:53:10.937Z,97375.81
2019-03-13T00:55:44.151Z,97381.59
2019-03-13T00:58:28.880Z,97379.72
2019-03-13T01:01:03.639Z,97363.89
2019-03-13T01:03:38.641Z,97358.22
2019-03-13T01:06:32.201Z,97359.89
2019-03-13T01:09:05.601Z,97359.53
2019-03-13T01:11:38.123Z,97354.91
2019-03-13T01:14:09.304Z,97342.34
2019-03-13T01:16:40.973Z,97337.69
2019-03-13T01:19:17.779Z,97324.92
2019-03-13T01:22:06.044Z,97325.37
2019-03-13T01:24:42.191Z,97321.54
2019-03-13T01:27:14.160Z,97316.53
2019-03-13T01:29:53.894Z,97312.23
2019-03-13T01:32:33.347Z,97309.86
2019-03-13T01:35:19.173Z,97310.04
2019-03-13T01:37:52.537Z,97310.04
2019-03-13T01:40:31.583Z,97305.30
2019-03-13T01:43:05.379Z,97305.52
2019-03-13T01:45:40.943Z,97300.72
2019-03-13T01:48:32.377Z,97291.40
2019-03-13T01:51:11.281Z,97291.40
2019-03-13T01:53:51.895Z,97286.00
2019-03-13T01:56:25.849Z,97281.89
2019-03-13T01:59:08.655Z,97283.42
2019-03-13T02:01:46.062Z,97278.16
2019-03-13T02:04:19.460Z,97277.67
2019-03-13T02:06:56.066Z,97267.14
2019-03-13T02:12:28.921Z,97270.23
2019-03-13T02:17:57.515Z,97269.54
2019-03-13T02:20:39.810Z,97265.88
2019-03-13T02:23:22.291Z,97263.95
2019-03-13T02:25:59.195Z,97249.45
2019-03-13T02:28:35.686Z,97251.75
2019-03-13T02:31:13.996Z,97240.48
2019-03-13T02:33:53.600Z,97231.92
2019-03-13T02:36:31.609Z,97240.52
2019-03-13T02:39:09.088Z,97240.98
2019-03-13T02:41:46.734Z,97237.48
2019-03-13T02:44:28.609Z,97233.92
2019-03-13T02:47:19.285Z,97228.66
2019-03-13T02:49:57.613Z,97225.06
2019-03-13T02:52:34.437Z,97219.59
2019-03-13T02:55:10.909Z,97205.84
2019-03-13T02:57:41.680Z,97205.02
2019-03-13T03:00:48.322Z,97215.91
2019-03-13T03:03:23.182Z,97209.95
2019-03-13T03:06:08.114Z,97207.36
2019-03-13T03:09:24.079Z,97199.38
2019-03-13T03:12:09.641Z,97202.45
2019-03-13T03:14:42.844Z,97192.41
2019-03-13T03:17:14.699Z,97198.75
2019-03-13T03:20:01.296Z,97196.17
2019-03-13T03:22:34.534Z,97189.47
2019-03-13T03:25:41.290Z,97185.41
2019-03-13T04:20:23.322Z,97135.73
2019-03-13T04:36:26.559Z,97109.67
2019-03-13T04:38:56.656Z,97119.23
2019-03-13T04:41:27.485Z,97122.91
2019-03-13T04:43:58.410Z,97111.91
2019-03-13T04:46:28.914Z,97108.59
2019-03-13T04:49:03.763Z,97109.59
2019-03-13T04:51:34.866Z,97110.92
2019-03-13T04:54:04.821Z,97124.98
2019-03-13T04:56:36.009Z,97136.09
2019-03-13T04:59:06.388Z,97144.15
2019-03-13T05:01:37.097Z,97137.92
2019-03-13T05:04:08.401Z,97130.48
2019-03-13T05:06:39.043Z,97135.99
2019-03-13T05:09:09.148Z,97136.80
2019-03-13T05:11:39.444Z,97133.78
2019-03-13T05:14:10.741Z,97141.39
2019-03-13T05:16:41.575Z,97143.13
2019-03-13T05:19:11.571Z,97135.86
2019-03-13T05:21:52.165Z,97136.17
2019-03-13T05:24:23.000Z,97130.73
2019-03-13T05:26:53.777Z,97136.31
2019-03-13T05:29:24.677Z,97132.20
2019-03-13T05:31:59.236Z,97131.82
2019-03-13T05:34:29.800Z,97112.55
2019-03-13T05:37:01.942Z,97130.09
2019-03-13T05:39:32.190Z,97137.55
2019-03-13T05:42:10.622Z,97130.22
2019-03-13T05:44:40.955Z,97133.81
2019-03-13T05:47:19.565Z,97136.02
2019-03-13T05:49:50.862Z,97133.41
2019-03-13T05:52:21.215Z,97136.53
2019-03-13T05:54:51.167Z,97134.36
2019-03-13T05:57:21.255Z,97137.34
2019-03-13T05:59:51.215Z,97139.88
2019-03-13T06:02:24.090Z,97142.53
2019-03-13T06:04:54.934Z,97155.33
2019-03-13T06:07:27.176Z,97158.39
2019-03-13T06:10:03.608Z,97164.45
2019-03-13T06:12:45.183Z,97173.09
2019-03-13T06:15:17.014Z,97180.83
2019-03-13T06:17:49.148Z,97186.48
2019-03-13T06:20:20.776Z,97185.88
2019-03-13T06:22:54.250Z,97185.52
2019-03-13T06:25:27.510Z,97182.38
2019-03-13T06:28:00.626Z,97180.20
2019-03-13T06:30:35.435Z,97175.49
2019-03-13T06:33:10.898Z,97173.38
2019-03-13T06:35:42.720Z,97179.36
2019-03-13T06:38:13.378Z,97178.98
2019-03-13T06:40:49.947Z,97177.59
2019-03-13T06:43:21.008Z,97164.91
2019-03-13T06:45:53.349Z,97163.39
2019-03-13T06:48:26.922Z,97162.77
2019-03-13T06:51:01.020Z,97165.66
2019-03-13T07:03:47.644Z,97176.75
2019-03-13T07:06:21.126Z,97162.15
2019-03-13T07:18:45.052Z,97180.37
2019-03-13T07:21:38.201Z,97177.98
2019-03-13T07:24:27.916Z,97184.47
2019-03-13T07:27:09.798Z,97188.52
2019-03-13T07:32:52.819Z,97184.00
2019-03-13T07:35:36.651Z,97194.39
2019-03-13T07:38:29.139Z,97192.33
2019-03-13T08:57:42.015Z,97232.83
2019-03-13T09:00:45.142Z,97225.53
2019-03-13T09:06:30.573Z,97223.20
2019-03-13T11:22:27.095Z,97283.36
2019-03-13T11:47:15.668Z,97277.34
2019-03-13T11:53:10.684Z,97266.22
2019-03-13T11:55:45.319Z,97274.16
2019-03-13T11:58:29.220Z,97276.27
2019-03-13T12:01:03.351Z,97275.94
2019-03-13T12:03:34.812Z,97280.59
2019-03-13T12:06:24.364Z,97280.59
2019-03-13T12:08:55.867Z,97272.11
2019-03-13T12:11:45.667Z,97271.13
2019-03-13T12:14:35.095Z,97275.39
2019-03-13T12:17:09.364Z,97275.39
2019-03-13T12:19:47.229Z,97276.38
2019-03-13T12:22:18.483Z,97274.69
2019-03-13T12:25:09.399Z,97263.94
2019-03-13T12:27:40.745Z,97262.34
2019-03-13T12:30:17.322Z,97257.32
2019-03-13T12:32:48.868Z,97255.30
2019-03-13T12:35:36.362Z,97254.28
2019-03-13T12:38:14.618Z,97248.36
2019-03-13T12:40:57.997Z,97236.69
2019-03-13T12:43:29.373Z,97239.93
2019-03-13T12:46:00.828Z,97246.64
2019-03-13T12:48:48.890Z,97243.80
2019-03-13T12:51:26.085Z,97246.48
2019-03-13T12:54:13.729Z,97248.97
2019-03-13T12:56:50.743Z,97247.78
2019-03-13T12:59:24.926Z,97258.61
2019-03-13T13:02:08.119Z,97258.61
2019-03-13T13:04:39.504Z,97260.89
2019-03-13T13:07:10.957Z,97258.06
2019-03-13T13:09:57.710Z,97260.80
2019-03-13T13:12:44.740Z,97268.45
2019-03-13T13:15:16.276Z,97264.27
2019-03-13T13:17:50.403Z,97259.96
2019-03-13T13:20:20.129Z,97260.94
2019-03-13T13:22:50.843Z,97250.18
2019-03-13T13:25:23.243Z,97246.66
2019-03-13T13:27:52.914Z,97256.91
2019-03-13T13:30:22.729Z,97250.36
2019-03-13T13:32:52.472Z,97256.52
2019-03-13T13:35:23.250Z,97249.74
2019-03-13T13:37:52.946Z,97253.83
2019-03-13T13:40:23.013Z,97254.31
2019-03-13T13:42:56.330Z,97256.94
2019-03-13T13:45:53.842Z,97257.57
2019-03-13T13:48:27.009Z,97255.25
2019-03-13T13:51:04.056Z,97253.93
2019-03-13T13:53:41.091Z,97252.41
2019-03-13T13:56:31.362Z,97258.27
2019-03-13T13:59:02.666Z,97252.11
2019-03-13T14:01:37.001Z,97254.75
2019-03-13T14:04:07.314Z,97246.20
2019-03-13T14:06:37.218Z,97248.09
2019-03-13T14:09:07.698Z,97241.79
2019-03-13T14:11:38.763Z,97236.44
2019-03-13T14:14:08.416Z,97238.05
2019-03-13T14:16:38.703Z,97226.36
2019-03-13T14:19:08.954Z,97224.81
2019-03-13T14:21:38.791Z,97225.20
2019-03-13T14:24:12.016Z,97220.54
2019-03-13T14:26:49.246Z,97218.69
2019-03-13T14:29:19.223Z,97223.58
2019-03-13T14:31:49.206Z,97213.84
2019-03-13T14:34:19.932Z,97217.36
2019-03-13T14:36:49.979Z,97223.18
2019-03-13T14:39:20.715Z,97224.35
2019-03-13T14:41:50.648Z,97228.06
2019-03-13T14:46:44.211Z,97221.97
2019-03-13T14:49:13.607Z,97229.28
2019-03-13T14:51:42.982Z,97226.41
2019-03-13T14:54:12.361Z,97220.77
2019-03-13T14:56:41.732Z,97216.31
2019-03-13T14:59:11.253Z,97217.19
2019-03-13T15:01:40.625Z,97216.64
2019-03-13T15:04:10.067Z,97221.19
2019-03-13T15:06:39.446Z,97217.42
2019-03-13T15:09:08.831Z,97231.57
2019-03-13T15:11:39.676Z,97230.56
2019-03-13T15:14:09.063Z,97230.00
2019-03-13T15:16:38.436Z,97234.50
2019-03-13T15:19:07.804Z,97229.14
2019-03-13T15:21:38.054Z,97231.73
2019-03-13T15:24:09.579Z,97230.32
2019-03-13T15:26:39.228Z,97221.55
2019-03-13T15:29:08.616Z,97216.45
2019-03-13T15:31:38.339Z,97219.37
2019-03-13T15:34:07.720Z,97218.94
2019-03-13T15:36:37.108Z,97223.00
2019-03-13T15:39:07.621Z,97222.50
2019-03-13T15:41:37.777Z,97225.80
2019-03-13T15:44:07.152Z,97229.53
2019-03-13T15:46:36.536Z,97214.50
2019-03-13T15:49:05.907Z,97216.16
2019-03-13T15:51:38.508Z,97215.48
2019-03-13T15:54:08.332Z,97222.45
2019-03-13T15:56:37.933Z,97226.06
2019-03-13T15:59:07.308Z,97229.89
2019-03-13T16:01:36.681Z,97234.80
2019-03-13T16:04:09.296Z,97244.22
2019-03-13T16:06:38.676Z,97241.60
2019-03-13T16:09:11.499Z,97241.28
2019-03-13T16:11:42.499Z,97241.36
2019-03-13T16:14:16.356Z,97236.66
2019-03-13T16:16:45.741Z,97230.05
2019-03-13T16:19:17.457Z,97227.52
2019-03-13T16:21:46.838Z,97237.97
2019-03-13T16:24:16.235Z,97230.05
2019-03-13T16:26:45.648Z,97230.98
2019-03-13T16:29:15.051Z,97227.72
2019-03-13T16:31:44.476Z,97227.22
2019-03-13T16:34:13.846Z,97228.34
2019-03-13T16:36:43.239Z,97230.53
2019-03-13T16:39:12.618Z,97231.88
2019-03-13T16:41:42.170Z,97239.30
2019-03-13T16:44:11.557Z,97242.86
2019-03-13T16:46:40.938Z,97241.37
2019-03-13T16:49:10.323Z,97237.28
2019-03-13T16:51:39.704Z,97237.28
2019-03-13T16:54:09.108Z,97231.77
2019-03-13T16:56:38.474Z,97238.86
2019-03-13T16:59:07.866Z,97241.24
2019-03-13T17:01:37.404Z,97250.67
2019-03-13T17:04:07.744Z,97253.23
2019-03-13T17:06:37.709Z,97262.66
2019-03-13T17:09:08.151Z,97265.23
2019-03-13T17:11:38.024Z,97263.47
2019-03-13T17:14:08.465Z,97266.83
2019-03-13T17:16:38.142Z,97273.56
2019-03-13T17:19:08.560Z,97260.41
2019-03-13T17:21:37.937Z,97271.27
2019-03-13T17:24:07.826Z,97269.12
2019-03-13T17:26:37.833Z,97268.34
2019-03-13T17:29:07.860Z,97275.19
2019-03-13T17:31:37.772Z,97279.60
2019-03-13T17:34:07.861Z,97283.42
2019-03-13T17:36:37.820Z,97281.42
2019-03-13T17:39:08.158Z,97278.63
2019-03-13T17:41:38.819Z,97283.22
2019-03-13T17:44:08.193Z,97278.78
2019-03-13T17:46:38.208Z,97286.27
2019-03-13T17:49:07.576Z,97292.61
2019-03-13T17:51:36.958Z,97286.40
2019-03-13T17:54:06.497Z,97279.91
2019-03-13T17:56:35.943Z,97285.16
2019-03-13T17:59:05.393Z,97288.51
2019-03-13T18:01:34.761Z,97290.84
2019-03-13T18:04:04.286Z,97287.78
2019-03-13T18:06:33.683Z,97294.09
2019-03-13T18:09:04.216Z,97299.62
2019-03-13T18:11:35.329Z,97299.67
2019-03-13T18:14:04.860Z,97301.38
2019-03-13T18:16:34.249Z,97299.81
2019-03-13T18:19:03.615Z,97290.39
2019-03-13T18:21:33.080Z,97291.85
2019-03-13T18:24:02.458Z,97292.09
2019-03-13T18:26:31.846Z,97295.16
2019-03-13T18:29:01.230Z,97294.58
2019-03-13T18:31:30.882Z,97304.70
2019-03-13T18:34:00.274Z,97298.19
2019-03-13T18:36:29.654Z,97310.43
2019-03-13T18:38:59.054Z,97307.84
2019-03-13T18:41:28.429Z,97308.36
2019-03-13T18:43:58.002Z,97304.74
2019-03-13T18:46:27.701Z,97300.24
2019-03-13T18:49:01.391Z,97299.91
2019-03-13T18:51:30.793Z,97310.30
2019-03-13T18:54:00.215Z,97309.48
2019-03-13T18:56:29.602Z,97305.59
2019-03-13T18:58:58.996Z,97298.82
2019-03-13T19:01:28.440Z,97307.70
2019-03-13T19:03:58.177Z,97310.56
2019-03-13T19:06:27.587Z,97307.05
2019-03-13T19:08:57.732Z,97307.89
2019-03-13T19:11:27.153Z,97303.39
2019-03-13T19:13:58.321Z,97306.94
2019-03-13T19:16:27.771Z,97299.39
2019-03-13T19:18:57.149Z,97294.29
2019-03-13T19:21:26.533Z,97296.20
2019-03-13T19:23:55.916Z,97297.65
2019-03-13T19:26:25.305Z,97299.54
2019-03-13T19:28:54.686Z,97299.54
2019-03-13T19:31:24.088Z,97302.08
2019-03-13T19:33:53.467Z,97304.95
2019-03-13T19:36:22.850Z,97299.10
2019-03-13T19:38:52.309Z,97309.42
2019-03-13T19:41:21.695Z,97303.33
2019-03-13T19:43:51.158Z,97303.77
2019-03-13T19:46:23.464Z,97314.06
2019-03-13T19:48:53.858Z,97309.13
2019-03-13T19:51:24.195Z,97302.33
2019-03-13T19:54:00.212Z,97294.31
2019-03-13T19:56:29.618Z,97295.84
2019-03-13T19:58:59.083Z,97294.61
2019-03-13T20:01:28.558Z,97295.52
2019-03-13T20:03:58.028Z,97301.78
2019-03-13T20:06:27.411Z,97301.50
2019-03-13T20:08:56.952Z,97292.07
2019-03-13T20:11:26.347Z,97297.63
2019-03-13T20:13:55.731Z,97297.17
2019-03-13T20:16:25.111Z,97289.77
2019-03-13T20:18:56.440Z,97288.33
2019-03-13T20:21:25.862Z,97291.48
2019-03-13T20:23:56.236Z,97289.91
2019-03-13T20:26:27.576Z,97291.33
2019-03-13T20:28:57.042Z,97286.95
2019-03-13T20:31:26.567Z,97294.61
2019-03-13T20:33:57.048Z,97295.72
2019-03-13T20:36:26.601Z,97287.24
2019-03-13T20:38:56.129Z,97290.13
2019-03-13T20:41:25.516Z,97287.59
2019-03-13T20:43:55.048Z,97287.97
2019-03-13T20:46:25.475Z,97292.44
2019-03-13T20:48:56.977Z,97291.22
2019-03-13T20:51:32.883Z,97292.77
2019-03-13T20:54:02.562Z,97290.25
2019-03-13T20:56:31.940Z,97297.72
2019-03-13T20:59:01.404Z,97289.23
2019-03-13T21:01:30.851Z,97292.88
2019-03-13T21:04:00.379Z,97296.34
2019-03-13T21:06:29.841Z,97295.45
2019-03-13T21:09:00.481Z,97277.86
2019-03-13T21:11:31.516Z,97277.63
2019-03-13T21:14:04.412Z,97278.70
2019-03-13T21:16:33.881Z,97274.61
2019-03-13T21:19:03.737Z,97279.56
2019-03-13T21:21:33.197Z,97275.76
2019-03-13T21:24:02.669Z,97280.03
2019-03-13T21:26:39.068Z,97271.20
2019-03-13T21:29:08.518Z,97275.55
2019-03-13T21:31:37.967Z,97275.17
2019-03-13T21:34:08.356Z,97282.31
2019-03-13T21:36:37.886Z,97268.95
2019-03-13T21:39:07.502Z,97264.84
2019-03-13T21:41:37.469Z,97291.07
2019-03-13T21:44:07.059Z,97262.25
2019-03-13T21:46:36.448Z,97270.41
2019-03-13T21:49:08.333Z,97260.73
2019-03-13T21:51:38.155Z,97263.92
2019-03-13T21:54:08.715Z,97261.65
2019-03-13T21:56:38.087Z,97258.41
2019-03-13T21:59:07.555Z,97250.58
2019-03-13T22:01:36.945Z,97256.71
2019-03-13T22:04:07.964Z,97254.61
2019-03-13T22:06:37.474Z,97259.52
2019-03-13T22:09:10.705Z,97259.80
2019-03-13T22:11:41.954Z,97254.89
2019-03-13T22:14:11.350Z,97255.90
2019-03-13T22:16:40.745Z,97252.76
2019-03-13T22:19:10.122Z,97256.00
2019-03-13T22:21:39.514Z,97257.77
2019-03-13T22:24:08.958Z,97258.24
2019-03-13T22:26:38.345Z,97253.03
2019-03-13T22:29:07.738Z,97257.97
2019-03-13T22:31:37.123Z,97258.98
2019-03-13T22:34:06.503Z,97251.70
2019-03-13T22:36:35.899Z,97245.95
2019-03-13T22:39:07.116Z,97241.55
2019-03-13T22:41:36.914Z,97245.28
2019-03-13T22:44:06.261Z,97243.03
2019-03-13T22:46:35.641Z,97230.62
2019-03-13T22:49:05.100Z,97224.84
2019-03-13T22:51:35.758Z,97228.05
2019-03-13T22:54:05.512Z,97223.93
2019-03-13T22:56:34.898Z,97225.39
2019-03-13T22:59:04.347Z,97220.25
2019-03-13T23:01:33.801Z,97227.45
2019-03-13T23:04:03.626Z,97225.58
2019-03-13T23:06:33.283Z,97232.43
2019-03-13T23:09:03.429Z,97235.83
2019-03-13T23:11:34.418Z,97231.61
2019-03-13T23:14:03.863Z,97233.22
2019-03-13T23:16:34.294Z,97237.45
2019-03-13T23:19:03.989Z,97230.88
2019-03-13T23:21:33.501Z,97224.98
2019-03-13T23:24:04.976Z,97224.47
2019-03-13T23:26:34.691Z,97224.10
2019-03-13T23:29:05.014Z,97224.72
2019-03-13T23:31:34.536Z,97220.12
2019-03-13T23:34:04.284Z,97211.91
2019-03-13T23:36:33.676Z,97221.88
2019-03-13T23:39:03.052Z,97223.84
2019-03-13T23:41:34.067Z,97224.36
2019-03-13T23:44:03.455Z,97222.64
2019-03-13T23:46:34.291Z,97222.64
2019-03-13T23:49:06.289Z,97208.81
2019-03-13T23:51:35.680Z,97206.73
2019-03-13T23:54:05.245Z,97204.25
2019-03-13T23:56:34.623Z,97195.20
2019-03-13T23:59:04.006Z,97194.05
